Miami, Florida
Traffic Map
Current Weather Conditions
Miami, Florida
Scattered Clouds
Scattered Clouds
83°
Feels Like: 89°
Wind Chill: 83° Ceiling: Unl
Heat Index: 89° Visibility: 10mi
Dew Point: 74° Wind: 9mph
Humidity: 74% Direction: 110° (ESE)
Pressure: 30.06in Gusts: 0mph
Raw Report DataKMIA 260953Z 11008KT 10SM FEW022 FEW036 SCT095 SCT250 28/23 A3006 RMK AO2 SLP177 T02830233
Traffic Incident Summary
Active as of:
Severity:
Category:
InformationThere was an issue retrieving the traffic information for this location. Please try a different location or try again shortly.
Advertisements
Track Severe Weather on mobile